Aérodrome :







RETROUVEZ-NOUS SUR...

 
LOGIN :

S'inscrire | Disclaimer

   EN    FR    IT 

 









Légende :    VFR   VFR Marginal   IFR   IFR Intensif   IFR Très Intensif
Visi : 
Plafond : 
>= 8 km
>= 3000ft
5 à 8 km
1000 à 3000 ft
1500m à 5 km
500 à 1000 ft
800 à 1500m
200 à 500 ft
< 800m
< 200 ft
Symboles :   Orages  Brouillard  Fortes neiges  Fortes précipitations  Vent > 20 kt






- Altitude de l'aérodrome : 522 ft
- Code IATA : YBG


CYBG - CFB Bagotville

DERNIER METAR :
  • 020600Z 26004KT 7SM SCT004 OVC023 00/M00 A2992 RMK SF3SC5 SLP138

METARs EXPIRÉS :
  • 020500Z 27004KT 4SM BR BKN003 BKN010 OVC025 M00/M00 A2991 RMK SF5SC1SC2 CIG VRB 2-4 SLP138
  • 020440Z 27004KT 3SM BR BKN003 OVC010 M00/M00 A2992 RMK SF5SC3 VIS VRB 2-4 CIG VRB 2-4 SLP139
  • 020400Z 27002KT 3SM BR FEW002 BKN010 OVC026 M00/M00 A2993 RMK SF1SC6SC2 VIS VRB 2-4 CIG VRB 7-13 SLP143

TAF AMD TAF CYBG
Valide du 02 à 06h jusqu'au 03 à 06h UTC


020615Z 0206/0306 27005KT P6SM SCT005 OVC020
TEMPO 0206/0208 2SM -SN BR BKN005 OVC020
FM020800 27005KT 1SM -SN BR OVC005
TEMPO 0208/0211 4SM -SN BR SCT005 OVC015
FM021100 27005KT 4SM -RASN -DZ BR SCT008 OVC010
TEMPO 0211/0215 2SM -RASN BR BKN008 OVC010
FM021500 VRB03KT 4SM -RA -DZ BR SCT005 OVC008
FM022200 28005KT 5SM -RA -DZ BR FEW005 SCT008 OVC012
FM030000 10008KT 6SM -RA BR FEW008 SCT012 OVC020 RMK NXT FCST BY 021200Z



MET'MAP, la Météo Aéronautique d'un coup d'oeil ! - Copyright ORBIFLY Décembre 2007 - Disclaimer

ORBIFLY MET'MAP TEAM :

Programmation & Développement : Alexandra Zaïnal
Sur une idée originale de : Baudouin d'Aumeries
Assistance à la programmation : Marc-Olivier Méhu
Soutien technique & logistique : Manuel Goepfert

Contact : metmap@orbifly.com




SOURCES & CREDITS :

   NOAA